Time;durP1;ratioP1;P1;durP2;ratioP2;P2;SDS_P1;SDS_P2;PMS_P1;PMS_P2;Temp;Humidity;BMP_temperature;BMP_pressure;BME280_temperature;BME280_humidity;BME280_pressure;Samples;Min_cycle;Max_cycle;Signal;HPM_P1;HPM_P2
2024/02/24 00:01:54;;;;;;;2.20;1.37;;;4.30;99.90;3.80;98918.00;;;;4933717;28;89785;-69
2024/02/24 00:04:19;;;;;;;4.07;1.50;;;4.10;99.90;3.90;98914.00;;;;4929332;28;109432;-69
2024/02/24 00:06:45;;;;;;;1.63;1.53;;;4.50;99.90;3.90;98912.00;;;;4931266;28;109193;-68
2024/02/24 00:09:11;;;;;;;1.57;1.47;;;4.10;99.90;4.00;98911.00;;;;4933632;28;116771;-69
2024/02/24 00:11:36;;;;;;;2.10;1.37;;;4.20;99.90;4.00;98908.00;;;;4932263;28;116609;-69
2024/02/24 00:14:02;;;;;;;3.40;1.80;;;4.10;99.90;4.00;98907.00;;;;4930922;28;112326;-69
2024/02/24 00:16:27;;;;;;;8.20;2.10;;;4.20;99.90;4.10;98903.00;;;;4931565;28;109843;-69
2024/02/24 00:18:55;;;;;;;1.70;1.43;;;4.30;99.90;4.10;98907.00;;;;4928985;28;116750;-68
2024/02/24 00:21:21;;;;;;;3.00;2.53;;;5.20;99.90;4.20;98902.00;;;;4927708;28;88247;-68
2024/02/24 00:23:47;;;;;;;3.53;1.50;;;4.30;99.90;4.20;98902.00;;;;4930947;28;87943;-68
2024/02/24 00:26:13;;;;;;;1.90;1.77;;;4.40;99.90;4.30;98897.00;;;;4932310;28;98741;-68
2024/02/24 00:28:39;;;;;;;2.43;2.23;;;4.50;99.90;4.30;98893.00;;;;4930397;28;117513;-68
2024/02/24 00:31:04;;;;;;;2.33;2.13;;;5.20;99.90;4.30;98892.00;;;;4932534;28;109638;-69
2024/02/24 00:33:30;;;;;;;2.00;1.80;;;4.40;99.90;4.30;98891.00;;;;4926372;28;106353;-69
2024/02/24 00:35:56;;;;;;;3.13;1.77;;;4.50;99.90;4.40;98903.00;;;;4925615;28;102483;-68
2024/02/24 00:38:21;;;;;;;2.57;2.17;;;4.60;99.90;4.40;98895.00;;;;4924471;28;115973;-69
2024/02/24 00:40:47;;;;;;;2.50;1.63;;;4.60;99.90;4.40;98895.00;;;;4935836;28;116645;-68
2024/02/24 00:43:13;;;;;;;2.50;2.30;;;4.60;99.90;4.40;98894.00;;;;4933411;28;110339;-69
2024/02/24 00:45:38;;;;;;;1.63;1.27;;;4.60;99.90;4.40;98895.00;;;;4935357;28;108501;-69
2024/02/24 00:48:04;;;;;;;3.03;1.60;;;4.60;99.90;4.30;98890.00;;;;4929927;28;89021;-69
2024/02/24 00:50:31;;;;;;;3.23;2.30;;;4.50;99.90;4.30;98887.00;;;;4930085;28;107239;-69
2024/02/24 00:52:57;;;;;;;4.33;2.43;;;4.50;99.90;4.30;98898.00;;;;4932866;28;86898;-69
2024/02/24 00:55:23;;;;;;;4.07;2.60;;;4.50;99.90;4.30;98898.00;;;;4933658;28;102297;-68
2024/02/24 00:57:50;;;;;;;4.93;2.07;;;4.50;99.90;4.20;98905.00;;;;4938483;28;108870;-69
2024/02/24 01:00:19;;;;;;;2.10;1.77;;;4.40;99.90;4.20;98897.00;;;;4925335;28;109567;-69
2024/02/24 01:02:46;;;;;;;5.67;2.53;;;4.40;99.90;4.20;98892.00;;;;4929206;28;88519;-69
2024/02/24 01:05:11;;;;;;;2.93;2.50;;;5.20;99.90;4.20;98896.00;;;;4933336;28;87985;-69
2024/02/24 01:07:37;;;;;;;1.77;1.67;;;4.40;99.90;4.30;98899.00;;;;4933613;28;104553;-69
2024/02/24 01:10:03;;;;;;;3.47;2.20;;;5.30;99.90;4.30;98905.00;;;;4945508;28;116687;-69
2024/02/24 01:12:29;;;;;;;5.90;1.77;;;4.50;99.90;4.30;98905.00;;;;4936163;28;94354;-68
2024/02/24 01:14:54;;;;;;;2.27;2.07;;;4.50;99.90;4.30;98904.00;;;;4937955;28;87735;-68
2024/02/24 01:17:20;;;;;;;3.90;2.10;;;4.50;99.90;4.30;98909.00;;;;4935625;28;87658;-69
2024/02/24 01:19:46;;;;;;;2.03;1.47;;;4.40;99.90;4.30;98907.00;;;;4932988;28;87826;-68
2024/02/24 01:22:16;;;;;;;2.97;1.70;;;5.20;99.90;4.30;98913.00;;;;4935409;28;110405;-69
2024/02/24 01:24:43;;;;;;;2.23;1.63;;;4.40;99.90;4.30;98907.00;;;;4930540;28;88837;-69
2024/02/24 01:27:08;;;;;;;2.57;1.83;;;4.50;99.90;4.30;98903.00;;;;4933304;28;108503;-69
2024/02/24 01:29:34;;;;;;;2.97;1.63;;;4.50;99.90;4.30;98901.00;;;;4931599;28;111444;-69
2024/02/24 01:32:01;;;;;;;2.20;1.60;;;4.60;99.90;4.30;98897.00;;;;4929053;28;109333;-69
2024/02/24 01:34:27;;;;;;;4.70;2.30;;;4.70;99.90;4.30;98893.00;;;;4929275;28;87984;-69
2024/02/24 01:36:54;;;;;;;1.73;1.47;;;4.50;99.90;4.30;98887.00;;;;4929393;28;90222;-69
2024/02/24 01:39:22;;;;;;;2.90;1.60;;;4.60;99.90;4.30;98886.00;;;;4929968;28;87959;-69
2024/02/24 01:41:48;;;;;;;1.60;1.50;;;4.40;99.90;4.20;98887.00;;;;4932306;28;101362;-69
2024/02/24 01:44:18;;;;;;;3.47;1.60;;;4.40;99.90;4.20;98888.00;;;;4930756;28;107558;-69
2024/02/24 01:46:46;;;;;;;2.07;1.43;;;4.40;99.90;4.20;98891.00;;;;4942644;28;88146;-69
2024/02/24 01:49:12;;;;;;;3.10;1.43;;;5.30;99.90;4.10;98889.00;;;;4928200;28;89340;-70
2024/02/24 01:51:37;;;;;;;2.10;1.33;;;4.40;99.90;4.10;98889.00;;;;4933070;28;98332;-69
2024/02/24 01:54:03;;;;;;;1.37;1.27;;;4.30;99.90;4.00;98901.00;;;;4928653;28;107878;-69
2024/02/24 01:56:29;;;;;;;3.50;1.37;;;4.30;99.90;4.00;98891.00;;;;4935788;28;88052;-69
2024/02/24 01:58:55;;;;;;;1.60;1.50;;;4.30;99.90;3.90;98885.00;;;;4948806;28;115515;-68
2024/02/24 02:01:21;;;;;;;2.23;1.93;;;4.10;99.90;3.90;98890.00;;;;4934699;28;87917;-68
2024/02/24 02:03:47;;;;;;;4.37;2.13;;;4.10;99.90;3.80;98889.00;;;;4935527;28;91787;-68
2024/02/24 02:06:13;;;;;;;1.67;1.57;;;4.10;99.90;3.70;98890.00;;;;4934149;28;115894;-68
2024/02/24 02:08:38;;;;;;;2.20;2.00;;;4.00;99.90;3.70;98895.00;;;;4930562;28;87818;-69
2024/02/24 02:11:04;;;;;;;2.67;2.47;;;3.90;99.90;3.60;98900.00;;;;4933674;28;111323;-69
2024/02/24 02:13:29;;;;;;;3.03;2.03;;;3.90;99.90;3.60;98903.00;;;;4917940;28;105347;-69
2024/02/24 02:15:57;;;;;;;4.97;2.30;;;3.90;99.90;3.50;98891.00;;;;4925300;28;117281;-69
2024/02/24 02:18:22;;;;;;;2.47;2.00;;;3.80;99.90;3.50;98891.00;;;;4931292;28;88023;-69
2024/02/24 02:20:50;;;;;;;2.33;2.13;;;3.80;99.90;3.40;98893.00;;;;4930715;28;109916;-69
2024/02/24 02:23:16;;;;;;;4.97;2.57;;;3.70;99.90;3.30;98883.00;;;;4930406;28;87811;-69
2024/02/24 02:25:42;;;;;;;5.30;3.07;;;3.60;99.90;3.30;98891.00;;;;4930320;28;116663;-69
2024/02/24 02:28:08;;;;;;;4.03;1.73;;;3.50;99.90;3.20;98901.00;;;;4929658;28;88940;-69
2024/02/24 02:30:33;;;;;;;1.37;1.27;;;4.00;99.90;3.10;98902.00;;;;4933434;28;87185;-68
2024/02/24 02:32:59;;;;;;;2.07;1.30;;;3.50;99.90;3.10;98899.00;;;;4931024;28;92603;-68
2024/02/24 02:35:27;;;;;;;2.27;1.93;;;3.30;99.90;3.00;98897.00;;;;4930045;28;89205;-68
2024/02/24 02:37:53;;;;;;;2.97;2.10;;;3.30;99.90;3.00;98899.00;;;;4929681;28;89101;-68
2024/02/24 02:40:18;;;;;;;1.80;1.43;;;3.30;99.90;2.90;98900.00;;;;4926320;28;109333;-68
2024/02/24 02:42:45;;;;;;;2.63;1.77;;;3.20;99.90;2.80;98897.00;;;;4928431;28;87946;-68
2024/02/24 02:45:10;;;;;;;3.10;1.70;;;3.20;99.90;2.80;98903.00;;;;4930182;28;88993;-69
2024/02/24 02:47:38;;;;;;;1.80;1.70;;;3.00;99.90;2.70;98897.00;;;;4949295;28;117786;-68
2024/02/24 02:50:06;;;;;;;5.07;2.53;;;3.10;99.90;2.70;98903.00;;;;4932942;28;87911;-68
2024/02/24 02:52:31;;;;;;;2.63;1.93;;;3.00;99.90;2.60;98897.00;;;;4928539;28;87824;-69
2024/02/24 02:54:57;;;;;;;1.87;1.60;;;2.90;99.90;2.50;98905.00;;;;4932012;28;115363;-68
2024/02/24 02:57:23;;;;;;;3.80;1.63;;;2.60;99.90;2.50;98902.00;;;;4931077;28;116075;-68
2024/02/24 02:59:49;;;;;;;1.50;1.40;;;2.70;99.90;2.40;98911.00;;;;4929156;28;95755;-68
2024/02/24 03:02:15;;;;;;;2.03;1.40;;;2.70;99.90;2.40;98912.00;;;;4930329;28;108638;-68
2024/02/24 03:04:40;;;;;;;3.33;2.10;;;2.70;99.90;2.30;98921.00;;;;4929149;28;88724;-69
2024/02/24 03:07:09;;;;;;;2.10;1.70;;;2.60;99.90;2.30;98911.00;;;;4928403;28;88208;-68
2024/02/24 03:09:35;;;;;;;1.90;1.80;;;2.60;99.90;2.20;98924.00;;;;4930417;28;88391;-68
2024/02/24 03:12:00;;;;;;;1.20;1.10;;;2.50;99.90;2.20;98914.00;;;;4930609;28;109431;-68
2024/02/24 03:14:27;;;;;;;5.43;1.77;;;2.40;99.90;2.10;98924.00;;;;4928480;28;115489;-69
2024/02/24 03:16:54;;;;;;;2.47;1.87;;;2.50;99.90;2.10;98926.00;;;;4945172;28;107776;-68
2024/02/24 03:19:20;;;;;;;3.07;1.40;;;2.40;99.90;2.10;98935.00;;;;4930773;28;87247;-68
2024/02/24 03:21:45;;;;;;;3.03;1.80;;;2.40;99.90;2.00;98928.00;;;;4931575;28;100959;-67
2024/02/24 03:24:11;;;;;;;2.27;1.87;;;2.40;99.90;2.00;98926.00;;;;4935930;28;118748;-67
2024/02/24 03:26:39;;;;;;;4.10;2.10;;;2.30;99.90;1.90;98930.00;;;;4931398;28;88889;-68
2024/02/24 03:29:05;;;;;;;4.77;2.00;;;2.30;99.90;1.90;98938.00;;;;4932055;28;88749;-68
2024/02/24 03:31:30;;;;;;;2.40;1.77;;;2.20;99.90;1.80;98935.00;;;;4932037;28;107897;-68
2024/02/24 03:33:56;;;;;;;2.03;1.80;;;2.10;99.90;1.80;98922.00;;;;4932090;28;107015;-68
2024/02/24 03:36:22;;;;;;;1.77;1.57;;;2.00;99.90;1.70;98920.00;;;;4924487;28;117614;-68
2024/02/24 03:38:48;;;;;;;2.33;1.87;;;2.00;99.90;1.70;98927.00;;;;4931894;28;87924;-68
2024/02/24 03:41:13;;;;;;;2.03;1.93;;;3.00;99.90;1.60;98930.00;;;;4930345;28;108883;-70
2024/02/24 03:43:39;;;;;;;2.50;2.00;;;1.70;99.90;1.60;98921.00;;;;4935822;28;116944;-70
2024/02/24 03:46:06;;;;;;;3.30;2.03;;;2.70;99.90;1.60;98914.00;;;;4931427;28;88151;-69
2024/02/24 03:48:32;;;;;;;3.37;2.07;;;1.90;99.90;1.60;98918.00;;;;4930687;28;92817;-70
2024/02/24 03:50:59;;;;;;;2.23;1.70;;;1.80;99.90;1.50;98916.00;;;;4930557;28;90237;-70
2024/02/24 03:53:26;;;;;;;1.90;1.80;;;1.80;99.90;1.50;98920.00;;;;4929178;28;88756;-68
2024/02/24 03:55:52;;;;;;;3.07;1.60;;;1.90;99.90;1.50;98920.00;;;;4932554;28;88248;-68
2024/02/24 03:58:18;;;;;;;2.67;2.07;;;1.80;99.90;1.50;98916.00;;;;4926330;28;109673;-68
2024/02/24 04:00:45;;;;;;;1.97;1.77;;;1.80;99.90;1.50;98922.00;;;;4932841;28;107468;-69
2024/02/24 04:03:11;;;;;;;2.70;1.50;;;1.80;99.90;1.50;98930.00;;;;4929550;28;88372;-68
2024/02/24 04:05:37;;;;;;;1.67;1.57;;;1.80;99.90;1.50;98919.00;;;;4930436;28;88917;-68
2024/02/24 04:08:03;;;;;;;2.00;1.60;;;1.70;99.90;1.50;98929.00;;;;4932828;28;100523;-68
2024/02/24 04:10:29;;;;;;;4.57;2.13;;;1.80;99.90;1.40;98927.00;;;;4930127;28;87647;-70
2024/02/24 04:12:55;;;;;;;1.87;1.27;;;1.70;99.90;1.40;98932.00;;;;4927743;28;88439;-67
2024/02/24 04:15:22;;;;;;;2.07;1.77;;;1.70;99.90;1.40;98933.00;;;;4932834;28;96893;-67
2024/02/24 04:17:50;;;;;;;2.00;1.60;;;1.70;99.90;1.40;98933.00;;;;4932076;28;87867;-69
2024/02/24 04:20:17;;;;;;;3.93;2.10;;;1.60;99.90;1.30;98930.00;;;;4935488;28;90250;-70
2024/02/24 04:22:42;;;;;;;1.93;1.70;;;1.70;99.90;1.30;98938.00;;;;4933932;28;116921;-70
2024/02/24 04:25:09;;;;;;;1.47;1.37;;;1.50;99.90;1.30;98934.00;;;;4930734;28;88215;-70
2024/02/24 04:27:35;;;;;;;3.70;2.50;;;1.50;99.90;1.20;98938.00;;;;4929967;28;88306;-69
2024/02/24 04:30:01;;;;;;;1.60;1.50;;;1.50;99.90;1.20;98942.00;;;;4947365;28;89984;-69
2024/02/24 04:32:28;;;;;;;3.83;1.83;;;1.50;99.90;1.20;98932.00;;;;4934460;28;87636;-70
2024/02/24 04:34:54;;;;;;;3.37;2.50;;;1.60;99.90;1.10;98932.00;;;;4930016;28;107387;-70
2024/02/24 04:37:20;;;;;;;2.00;1.63;;;1.50;99.90;1.10;98944.00;;;;4936633;28;109340;-70
2024/02/24 04:39:45;;;;;;;3.93;1.93;;;1.50;99.90;1.10;98937.00;;;;4935853;28;88857;-69
2024/02/24 04:42:11;;;;;;;3.30;2.10;;;1.40;99.90;1.00;98938.00;;;;4933340;28;88537;-69
2024/02/24 04:44:37;;;;;;;2.17;1.93;;;1.30;99.90;1.00;98947.00;;;;4937392;28;88255;-69
2024/02/24 04:47:03;;;;;;;1.77;1.40;;;1.40;99.90;1.00;98956.00;;;;4940807;28;109435;-69
2024/02/24 04:49:29;;;;;;;3.30;2.23;;;1.30;99.90;0.90;98962.00;;;;4932816;28;109010;-71
2024/02/24 04:51:54;;;;;;;3.97;1.70;;;1.20;99.90;0.90;98963.00;;;;4936901;28;88471;-69
2024/02/24 04:54:21;;;;;;;2.73;2.20;;;1.30;99.90;0.90;98945.00;;;;4935435;28;115910;-69
2024/02/24 04:56:47;;;;;;;3.27;2.20;;;1.30;99.90;0.90;98949.00;;;;4935705;28;87152;-70
2024/02/24 04:59:14;;;;;;;3.17;2.33;;;1.20;99.90;0.80;98959.00;;;;4952484;28;87709;-69
2024/02/24 05:01:39;;;;;;;3.47;2.00;;;1.20;99.90;0.80;98966.00;;;;4934006;28;87724;-69
2024/02/24 05:04:06;;;;;;;2.37;2.07;;;1.10;99.90;0.80;98970.00;;;;4927567;28;115957;-69
2024/02/24 05:06:31;;;;;;;3.07;1.97;;;1.20;99.90;0.80;98971.00;;;;4931457;28;87799;-69
2024/02/24 05:08:57;;;;;;;4.53;1.90;;;1.20;99.90;0.70;98978.00;;;;4932282;28;108997;-70
2024/02/24 05:11:24;;;;;;;2.50;2.10;;;1.10;99.90;0.70;98978.00;;;;4936294;28;118508;-69
2024/02/24 05:13:50;;;;;;;2.93;2.57;;;1.10;99.90;0.70;98978.00;;;;4931579;28;88395;-69
2024/02/24 05:16:15;;;;;;;2.90;2.10;;;1.70;99.90;0.70;98981.00;;;;4932409;28;90709;-69
2024/02/24 05:18:41;;;;;;;4.07;1.93;;;1.00;99.90;0.60;98972.00;;;;4931847;28;97106;-69
2024/02/24 05:21:07;;;;;;;3.60;2.03;;;1.00;99.90;0.60;98974.00;;;;4933090;28;107250;-69
2024/02/24 05:23:32;;;;;;;3.40;1.90;;;1.70;99.90;0.60;98978.00;;;;4930280;28;88044;-69
2024/02/24 05:25:58;;;;;;;5.87;2.40;;;0.90;99.90;0.60;98968.00;;;;4931345;28;92333;-69
2024/02/24 05:28:24;;;;;;;3.10;2.30;;;0.90;99.90;0.50;98975.00;;;;4932055;28;108416;-69
2024/02/24 05:30:51;;;;;;;2.83;2.03;;;0.90;99.90;0.50;98979.00;;;;4929434;28;88893;-70
2024/02/24 05:33:17;;;;;;;4.43;2.40;;;1.90;99.90;0.50;98975.00;;;;4932121;28;87821;-70
2024/02/24 05:35:43;;;;;;;1.40;1.00;;;0.90;99.90;0.50;98981.00;;;;4930629;28;87825;-70
2024/02/24 05:38:09;;;;;;;3.63;2.40;;;0.90;99.90;0.50;98986.00;;;;4931696;28;108804;-70
2024/02/24 05:40:36;;;;;;;3.33;1.57;;;0.90;99.90;0.50;98984.00;;;;4940379;28;88735;-70
2024/02/24 05:43:03;;;;;;;4.00;1.60;;;0.90;99.90;0.50;98980.00;;;;4933195;28;117084;-70
2024/02/24 05:45:28;;;;;;;2.20;1.87;;;0.80;99.90;0.50;98993.00;;;;4952563;28;87146;-70
2024/02/24 05:47:57;;;;;;;3.00;2.23;;;0.80;99.90;0.50;98988.00;;;;4935595;28;109928;-70
2024/02/24 05:50:22;;;;;;;1.80;1.70;;;0.80;99.90;0.40;98993.00;;;;4934366;28;88109;-70
2024/02/24 05:52:48;;;;;;;2.00;1.80;;;0.90;99.90;0.40;99005.00;;;;4947666;28;117080;-70
2024/02/24 05:55:15;;;;;;;4.30;2.07;;;0.70;99.90;0.40;99003.00;;;;4934052;28;98836;-70
2024/02/24 05:57:40;;;;;;;3.57;2.17;;;0.70;99.90;0.40;99000.00;;;;4934839;28;89305;-70
2024/02/24 06:00:10;;;;;;;3.63;2.30;;;0.70;99.90;0.40;99009.00;;;;4933018;28;116705;-70
2024/02/24 06:02:37;;;;;;;3.93;2.07;;;0.70;99.90;0.30;99003.00;;;;4930535;28;88863;-70
2024/02/24 06:05:03;;;;;;;3.67;2.13;;;0.80;99.90;0.30;99017.00;;;;4931423;28;87856;-70
2024/02/24 06:07:29;;;;;;;2.03;1.60;;;0.60;99.90;0.30;99015.00;;;;4932383;28;88349;-69
2024/02/24 06:09:54;;;;;;;1.47;1.33;;;0.60;99.90;0.30;99019.00;;;;4930251;28;116072;-70
2024/02/24 06:12:20;;;;;;;1.70;1.57;;;0.60;99.90;0.30;99015.00;;;;4931648;28;116877;-70
2024/02/24 06:14:46;;;;;;;2.97;2.43;;;0.10;99.90;0.30;99021.00;;;;4932516;28;87873;-69
2024/02/24 06:17:11;;;;;;;3.83;2.73;;;0.60;99.90;0.30;99018.00;;;;4926901;28;108227;-69
2024/02/24 06:19:37;;;;;;;7.03;3.03;;;0.70;99.90;0.30;99028.00;;;;4932877;28;107765;-69
2024/02/24 06:22:03;;;;;;;2.50;1.87;;;0.60;99.90;0.30;99031.00;;;;4933175;28;87869;-70
2024/02/24 06:24:28;;;;;;;6.10;2.93;;;0.60;99.90;0.30;99025.00;;;;4948064;28;88078;-70
2024/02/24 06:26:54;;;;;;;2.37;2.17;;;1.40;99.90;0.30;99016.00;;;;4930921;28;108609;-70
2024/02/24 06:29:20;;;;;;;3.97;2.50;;;0.60;99.90;0.40;99025.00;;;;4931918;28;117165;-69
2024/02/24 06:31:45;;;;;;;2.67;2.00;;;0.80;99.90;0.50;99032.00;;;;4925959;28;118820;-69
2024/02/24 06:34:11;;;;;;;2.70;1.97;;;0.80;99.90;0.70;99029.00;;;;4929234;28;111034;-70
2024/02/24 06:36:37;;;;;;;3.63;2.30;;;0.90;99.90;0.70;99032.00;;;;4909075;28;107747;-69
2024/02/24 06:39:03;;;;;;;3.07;2.23;;;1.00;99.90;0.70;99037.00;;;;4926415;28;88250;-69
2024/02/24 06:41:28;;;;;;;4.40;2.17;;;1.10;99.90;0.70;99037.00;;;;4922836;28;117769;-69
2024/02/24 06:43:54;;;;;;;3.10;2.10;;;1.20;99.90;0.70;99031.00;;;;4932947;28;87952;-69
2024/02/24 06:46:20;;;;;;;2.33;2.03;;;1.00;99.90;0.70;99040.00;;;;4926186;28;87952;-69
2024/02/24 06:48:46;;;;;;;2.73;1.93;;;1.00;99.90;0.70;99037.00;;;;4926949;28;94891;-69
2024/02/24 06:51:12;;;;;;;1.77;1.67;;;1.20;99.90;0.70;99031.00;;;;4928478;28;88228;-69
2024/02/24 06:53:38;;;;;;;1.73;1.37;;;1.10;99.90;0.70;99031.00;;;;4927353;28;89203;-69
2024/02/24 06:56:09;;;;;;;2.33;2.07;;;1.30;99.90;0.70;99034.00;;;;4925979;28;87874;-69
2024/02/24 06:58:35;;;;;;;4.00;1.67;;;1.10;99.90;0.70;99039.00;;;;4928498;28;87552;-69
2024/02/24 07:01:05;;;;;;;1.37;1.27;;;1.70;99.90;0.80;99041.00;;;;4928433;28;88031;-69
2024/02/24 07:03:32;;;;;;;2.57;1.60;;;1.20;99.90;1.00;99052.00;;;;4926845;28;87790;-69
2024/02/24 07:06:00;;;;;;;2.30;1.83;;;1.20;99.90;1.20;99058.00;;;;4928939;28;89056;-69
2024/02/24 07:08:26;;;;;;;2.57;1.90;;;1.40;99.90;1.50;99063.00;;;;4924537;28;88010;-69
2024/02/24 07:10:51;;;;;;;3.10;2.13;;;1.60;99.90;1.80;99075.00;;;;4926092;28;87966;-69
2024/02/24 07:13:17;;;;;;;4.90;2.37;;;2.00;99.90;2.10;99071.00;;;;4926334;28;110011;-70
2024/02/24 07:15:43;;;;;;;2.23;2.03;;;2.30;99.90;2.50;99070.00;;;;4927868;28;108365;-69
2024/02/24 07:18:08;;;;;;;3.47;1.97;;;2.50;99.90;2.80;99073.00;;;;4926288;28;89904;-69
2024/02/24 07:20:34;;;;;;;4.20;2.20;;;3.00;99.90;3.20;99073.00;;;;4924951;28;116881;-70
2024/02/24 07:23:00;;;;;;;4.00;1.70;;;3.30;99.90;3.60;99078.00;;;;4928318;28;87683;-70
2024/02/24 07:25:25;;;;;;;1.73;1.63;;;4.50;99.90;4.00;99090.00;;;;4931276;28;108163;-70
2024/02/24 07:27:51;;;;;;;1.87;1.53;;;4.00;99.90;4.30;99097.00;;;;4924105;28;112788;-70
2024/02/24 07:30:16;;;;;;;1.90;1.67;;;4.40;99.90;4.60;99104.00;;;;4926444;28;116934;-69
2024/02/24 07:32:42;;;;;;;1.63;1.20;;;4.80;99.90;5.00;99095.00;;;;4925705;28;98538;-70
2024/02/24 07:35:08;;;;;;;1.50;1.13;;;5.10;99.90;5.40;99097.00;;;;4925828;28;108703;-70
2024/02/24 07:37:34;;;;;;;1.50;1.40;;;6.30;99.90;5.80;99110.00;;;;4934145;28;112279;-69
2024/02/24 07:39:59;;;;;;;3.50;1.60;;;5.70;99.90;6.10;99105.00;;;;4926088;28;108400;-70
2024/02/24 07:42:25;;;;;;;2.00;1.07;;;6.20;99.90;6.50;99106.00;;;;4928001;28;109776;-70
2024/02/24 07:44:51;;;;;;;1.57;1.20;;;7.20;99.90;6.80;99115.00;;;;4928720;28;87969;-70
2024/02/24 07:47:17;;;;;;;2.07;1.40;;;6.90;99.90;7.10;99116.00;;;;4929105;28;100354;-69
2024/02/24 07:49:43;;;;;;;2.73;1.57;;;7.10;99.90;7.40;99121.00;;;;4928530;28;87835;-70
2024/02/24 07:52:09;;;;;;;2.27;1.20;;;7.50;99.90;7.80;99123.00;;;;4924694;28;88124;-70
2024/02/24 07:54:35;;;;;;;1.10;0.87;;;7.80;99.90;8.00;99128.00;;;;4925106;28;109593;-69
2024/02/24 07:57:00;;;;;;;4.40;1.83;;;8.10;99.90;8.20;99131.00;;;;4925926;28;110043;-69
2024/02/24 07:59:26;;;;;;;1.47;1.30;;;8.30;99.90;8.50;99133.00;;;;4923436;28;88420;-68
2024/02/24 08:01:52;;;;;;;1.50;1.03;;;8.60;99.90;8.70;99133.00;;;;4928297;28;109442;-70
2024/02/24 08:04:17;;;;;;;3.60;1.50;;;8.80;99.90;8.90;99143.00;;;;4938880;28;107427;-68
2024/02/24 08:06:43;;;;;;;1.27;1.07;;;8.90;99.90;8.90;99143.00;;;;4926147;28;94297;-70
2024/02/24 08:09:09;;;;;;;2.63;1.93;;;9.10;99.90;9.10;99147.00;;;;4927000;28;117455;-70
2024/02/24 08:11:39;;;;;;;5.37;1.47;;;9.20;99.90;9.20;99147.00;;;;4926798;28;109931;-72
2024/02/24 08:14:07;;;;;;;1.83;1.60;;;9.20;99.90;9.30;99146.00;;;;4926481;28;87773;-70
2024/02/24 08:16:33;;;;;;;3.27;1.30;;;9.50;99.90;9.50;99147.00;;;;4927465;28;87769;-69
2024/02/24 08:18:59;;;;;;;1.97;1.40;;;9.60;99.90;9.60;99162.00;;;;4921560;28;88728;-69
2024/02/24 08:21:26;;;;;;;1.63;1.00;;;9.60;99.90;9.80;99163.00;;;;4926893;28;109245;-70
2024/02/24 08:23:52;;;;;;;1.50;1.00;;;9.80;99.90;10.10;99158.00;;;;4925040;28;87995;-70
2024/02/24 08:26:17;;;;;;;1.20;1.10;;;10.00;99.90;10.30;99159.00;;;;4924315;28;118380;-71
2024/02/24 08:28:43;;;;;;;2.10;1.13;;;10.30;99.90;10.50;99163.00;;;;4894508;28;116996;-70
2024/02/24 08:31:09;;;;;;;1.63;1.10;;;10.60;99.90;10.70;99154.00;;;;4919738;28;111625;-71
2024/02/24 08:33:34;;;;;;;2.97;1.27;;;10.70;99.90;10.80;99168.00;;;;4910538;28;108741;-69
2024/02/24 08:36:00;;;;;;;2.00;1.10;;;10.90;99.40;10.90;99164.00;;;;4905825;28;117226;-69
2024/02/24 08:38:27;;;;;;;2.37;1.30;;;11.00;98.00;11.00;99161.00;;;;4906159;28;117939;-72
2024/02/24 08:40:54;;;;;;;1.47;0.70;;;11.00;97.20;11.00;99164.00;;;;4902724;28;87915;-70
2024/02/24 08:43:20;;;;;;;3.77;0.90;;;11.10;97.30;11.20;99159.00;;;;4903965;28;98563;-68
2024/02/24 08:45:45;;;;;;;0.93;0.70;;;11.20;96.40;11.20;99157.00;;;;4903280;28;117793;-71
2024/02/24 08:48:12;;;;;;;1.00;0.80;;;11.30;95.60;11.30;99161.00;;;;4905852;28;116596;-71
2024/02/24 08:50:39;;;;;;;5.10;1.30;;;10.90;94.90;11.40;99156.00;;;;4904679;28;87861;-69
2024/02/24 08:53:05;;;;;;;1.30;1.20;;;11.40;95.00;11.50;99159.00;;;;4888469;28;88593;-71
2024/02/24 08:55:31;;;;;;;5.77;2.07;;;11.50;93.90;11.60;99174.00;;;;4908326;28;96704;-69
2024/02/24 08:57:57;;;;;;;2.77;2.47;;;11.70;94.30;11.90;99180.00;;;;4912072;28;87692;-69
2024/02/24 09:00:22;;;;;;;6.13;2.67;;;11.80;93.90;12.10;99186.00;;;;4906046;28;86980;-71
2024/02/24 09:02:48;;;;;;;3.23;1.53;;;12.00;92.90;12.20;99195.00;;;;4909522;28;108877;-70
2024/02/24 09:05:16;;;;;;;2.73;1.27;;;12.20;93.10;12.40;99197.00;;;;4910630;28;87945;-69
2024/02/24 09:07:41;;;;;;;3.03;1.63;;;12.30;92.40;12.50;99186.00;;;;4910597;28;88891;-69
2024/02/24 09:10:08;;;;;;;2.13;1.30;;;12.50;92.00;12.60;99189.00;;;;4907499;28;88065;-70
2024/02/24 09:12:33;;;;;;;3.27;1.40;;;12.60;91.10;12.80;99196.00;;;;4911040;28;88245;-71
2024/02/24 09:14:59;;;;;;;1.57;1.23;;;12.70;91.00;12.90;99205.00;;;;4909788;28;97250;-69
2024/02/24 09:17:25;;;;;;;2.20;1.20;;;12.90;89.60;13.10;99198.00;;;;4911356;28;88028;-69
2024/02/24 09:19:50;;;;;;;1.80;1.07;;;13.00;90.40;13.30;99216.00;;;;4909260;28;112263;-69
2024/02/24 09:22:17;;;;;;;2.23;0.97;;;13.20;90.10;13.60;99222.00;;;;4909453;28;109775;-70
2024/02/24 09:24:42;;;;;;;3.40;0.80;;;13.30;90.30;14.00;99227.00;;;;4908612;28;87427;-70
2024/02/24 09:27:08;;;;;;;3.83;1.17;;;13.80;90.10;14.20;99222.00;;;;4914261;28;117870;-69
2024/02/24 09:29:34;;;;;;;1.40;1.00;;;14.10;88.90;14.40;99225.00;;;;4910314;28;107909;-68
2024/02/24 09:31:59;;;;;;;0.67;0.50;;;14.30;85.00;14.40;99223.00;;;;4910359;28;107181;-70
2024/02/24 09:34:25;;;;;;;0.50;0.50;;;14.40;82.70;14.50;99235.00;;;;4910523;28;116639;-69
2024/02/24 09:36:50;;;;;;;0.57;0.57;;;14.50;81.00;14.50;99241.00;;;;4896109;28;117546;-70
2024/02/24 09:39:16;;;;;;;1.87;0.50;;;14.50;81.10;14.70;99237.00;;;;4907463;28;110611;-68
2024/02/24 09:41:42;;;;;;;2.08;0.65;;;14.70;80.00;14.80;99236.00;;;;4887333;28;87935;-68
2024/02/24 09:44:08;;;;;;;0.30;0.20;;;14.80;77.00;14.70;99248.00;;;;4927923;28;97795;-69
2024/02/24 09:46:35;;;;;;;4.78;2.60;;;14.80;73.00;14.70;99252.00;;;;4931476;28;88020;-68
2024/02/24 09:49:02;;;;;;;2.65;1.05;;;14.70;73.80;14.80;99245.00;;;;4930417;28;87540;-68
2024/02/24 09:51:28;;;;;;;1.45;0.32;;;14.80;74.10;15.00;99240.00;;;;4935056;28;108592;-71
2024/02/24 09:53:54;;;;;;;4.07;0.98;;;15.00;73.90;15.20;99235.00;;;;4933235;28;100907;-70
2024/02/24 09:56:22;;;;;;;0.98;0.60;;;15.10;73.20;15.40;99240.00;;;;4924937;28;116251;-71
2024/02/24 09:58:53;;;;;;;0.68;0.43;;;15.30;71.10;15.50;99235.00;;;;4927653;28;92139;-70
2024/02/24 10:01:19;;;;;;;3.33;0.43;;;15.40;70.00;15.50;99231.00;;;;4942238;28;91077;-69
2024/02/24 10:03:46;;;;;;;0.52;0.50;;;15.50;69.00;15.70;99237.00;;;;4933876;28;88460;-69
2024/02/24 10:06:12;;;;;;;2.08;0.77;;;15.60;69.40;15.90;99250.00;;;;4926840;28;87784;-70
2024/02/24 10:08:38;;;;;;;0.45;0.45;;;15.80;69.30;16.20;99251.00;;;;4927472;28;110261;-69
2024/02/24 10:11:04;;;;;;;0.50;0.50;;;16.10;69.00;16.40;99268.00;;;;4925462;28;89714;-71
2024/02/24 10:13:35;;;;;;;0.98;0.65;;;16.20;67.00;16.50;99267.00;;;;4928121;28;117349;-70
2024/02/24 10:16:07;;;;;;;1.75;0.50;;;16.30;65.20;16.60;99280.00;;;;4929170;28;88983;-68
2024/02/24 10:18:33;;;;;;;4.32;0.77;;;16.00;64.40;16.60;99278.00;;;;4931177;28;87825;-71
2024/02/24 10:20:59;;;;;;;1.13;0.40;;;16.50;64.00;16.70;99279.00;;;;4930023;28;108736;-70
2024/02/24 10:23:24;;;;;;;0.98;0.63;;;16.60;63.60;16.90;99287.00;;;;4931569;28;112958;-69
2024/02/24 10:25:50;;;;;;;1.80;0.55;;;16.70;64.00;17.00;99276.00;;;;4928274;28;118719;-70
2024/02/24 10:28:19;;;;;;;0.70;0.32;;;17.60;61.00;17.00;99289.00;;;;4928349;28;87676;-69
2024/02/24 10:30:47;;;;;;;1.77;0.60;;;16.90;59.40;17.00;99284.00;;;;4925852;28;108964;-69
2024/02/24 10:33:14;;;;;;;2.60;0.52;;;16.90;58.30;17.00;99293.00;;;;4930050;28;88011;-69
2024/02/24 10:35:40;;;;;;;0.95;0.30;;;16.90;59.10;17.30;99297.00;;;;4923210;28;107669;-69
2024/02/24 10:38:07;;;;;;;0.47;0.43;;;17.10;60.80;17.50;99315.00;;;;4925906;28;98064;-69
2024/02/24 10:40:35;;;;;;;0.25;0.25;;;17.30;59.40;17.30;99309.00;;;;4923903;28;109670;-69
2024/02/24 10:43:02;;;;;;;0.95;0.55;;;17.20;57.70;16.90;99313.00;;;;4942679;28;88350;-69
2024/02/24 10:45:29;;;;;;;2.15;0.65;;;16.80;55.30;16.30;99326.00;;;;4927509;28;89124;-69
2024/02/24 10:47:54;;;;;;;0.60;0.38;;;16.40;56.10;15.60;99317.00;;;;4930072;28;87828;-69
2024/02/24 10:50:20;;;;;;;2.08;0.50;;;15.80;55.70;15.10;99321.00;;;;4942919;28;108667;-67
2024/02/24 10:52:48;;;;;;;0.70;0.52;;;15.30;57.30;14.70;99322.00;;;;4928982;28;88088;-67
2024/02/24 10:55:18;;;;;;;1.50;0.70;;;14.90;58.10;14.40;99320.00;;;;4932730;28;115658;-68
2024/02/24 10:57:44;;;;;;;2.67;0.47;;;14.60;59.10;14.20;99324.00;;;;4929621;28;87990;-67